sensor_id;sensor_type;location;lat;lon;timestamp;pressure;altitude;pressure_sealevel;temperature;humidity
47556;BME280;33291;46.222;26.460;2024-01-16T00:01:06;94709.56;;;0.78;99.68
47556;BME280;33291;46.222;26.460;2024-01-16T00:03:32;94704.81;;;0.74;99.79
47556;BME280;33291;46.222;26.460;2024-01-16T00:05:58;94708.66;;;0.79;99.47
47556;BME280;33291;46.222;26.460;2024-01-16T00:08:24;94711.47;;;0.76;100.00
47556;BME280;33291;46.222;26.460;2024-01-16T00:10:50;94724.53;;;0.73;100.00
47556;BME280;33291;46.222;26.460;2024-01-16T00:13:16;94737.53;;;0.81;100.00
47556;BME280;33291;46.222;26.460;2024-01-16T00:15:42;94747.66;;;0.83;99.32
47556;BME280;33291;46.222;26.460;2024-01-16T00:18:08;94759.91;;;0.79;98.77
47556;BME280;33291;46.222;26.460;2024-01-16T00:20:34;94755.09;;;0.86;98.43
47556;BME280;33291;46.222;26.460;2024-01-16T00:23:00;94749.91;;;0.76;98.31
47556;BME280;33291;46.222;26.460;2024-01-16T00:25:25;94757.66;;;0.86;98.34
47556;BME280;33291;46.222;26.460;2024-01-16T00:27:51;94767.34;;;0.82;99.14
47556;BME280;33291;46.222;26.460;2024-01-16T00:30:17;94771.28;;;0.86;99.13
47556;BME280;33291;46.222;26.460;2024-01-16T00:32:43;94774.81;;;0.85;99.89
47556;BME280;33291;46.222;26.460;2024-01-16T00:35:08;94778.09;;;0.76;100.00
47556;BME280;33291;46.222;26.460;2024-01-16T00:37:36;94791.34;;;0.81;100.00
47556;BME280;33291;46.222;26.460;2024-01-16T00:40:02;94792.50;;;0.88;100.00
47556;BME280;33291;46.222;26.460;2024-01-16T00:42:30;94795.88;;;0.89;99.96
47556;BME280;33291;46.222;26.460;2024-01-16T00:44:55;94796.25;;;0.84;100.00
47556;BME280;33291;46.222;26.460;2024-01-16T00:47:21;94804.50;;;0.88;100.00
47556;BME280;33291;46.222;26.460;2024-01-16T00:49:46;94806.00;;;0.91;100.00
47556;BME280;33291;46.222;26.460;2024-01-16T00:52:12;94789.81;;;0.90;100.00
47556;BME280;33291;46.222;26.460;2024-01-16T00:54:38;94793.06;;;0.92;100.00
47556;BME280;33291;46.222;26.460;2024-01-16T00:57:04;94786.19;;;0.93;100.00
47556;BME280;33291;46.222;26.460;2024-01-16T00:59:30;94801.56;;;0.93;100.00
47556;BME280;33291;46.222;26.460;2024-01-16T01:01:56;94800.63;;;0.94;100.00
47556;BME280;33291;46.222;26.460;2024-01-16T01:04:21;94790.19;;;0.85;100.00
47556;BME280;33291;46.222;26.460;2024-01-16T01:06:47;94800.19;;;0.88;100.00
47556;BME280;33291;46.222;26.460;2024-01-16T01:09:12;94807.19;;;0.86;100.00
47556;BME280;33291;46.222;26.460;2024-01-16T01:11:38;94798.69;;;0.86;100.00
47556;BME280;33291;46.222;26.460;2024-01-16T01:14:06;94794.34;;;0.86;100.00
47556;BME280;33291;46.222;26.460;2024-01-16T01:16:31;94796.69;;;0.89;99.18
47556;BME280;33291;46.222;26.460;2024-01-16T01:18:57;94792.94;;;0.94;98.83
47556;BME280;33291;46.222;26.460;2024-01-16T01:21:22;94800.63;;;0.94;99.22
47556;BME280;33291;46.222;26.460;2024-01-16T01:23:48;94786.91;;;0.83;99.81
47556;BME280;33291;46.222;26.460;2024-01-16T01:26:13;94812.06;;;0.89;100.00
47556;BME280;33291;46.222;26.460;2024-01-16T01:28:40;94824.88;;;0.89;100.00
47556;BME280;33291;46.222;26.460;2024-01-16T01:31:08;94825.00;;;0.88;100.00
47556;BME280;33291;46.222;26.460;2024-01-16T01:33:34;94806.94;;;0.89;100.00
47556;BME280;33291;46.222;26.460;2024-01-16T01:35:59;94806.13;;;0.89;99.59
47556;BME280;33291;46.222;26.460;2024-01-16T01:38:25;94813.94;;;0.87;99.64
47556;BME280;33291;46.222;26.460;2024-01-16T01:40:50;94814.50;;;0.91;99.48
47556;BME280;33291;46.222;26.460;2024-01-16T01:43:24;94818.03;;;0.90;99.21
47556;BME280;33291;46.222;26.460;2024-01-16T01:46:26;94823.94;;;0.91;98.87
47556;BME280;33291;46.222;26.460;2024-01-16T01:48:52;94820.22;;;0.83;98.75
47556;BME280;33291;46.222;26.460;2024-01-16T01:51:19;94803.38;;;0.81;99.36
47556;BME280;33291;46.222;26.460;2024-01-16T01:53:47;94790.19;;;0.85;88.21
47556;BME280;33291;46.222;26.460;2024-01-16T01:56:20;94805.63;;;0.95;80.59
47556;BME280;33291;46.222;26.460;2024-01-16T01:58:48;94811.50;;;1.18;75.37
47556;BME280;33291;46.222;26.460;2024-01-16T02:01:16;94817.66;;;1.27;71.87
47556;BME280;33291;46.222;26.460;2024-01-16T02:03:44;94823.84;;;1.46;67.05
47556;BME280;33291;46.222;26.460;2024-01-16T02:06:11;94826.69;;;1.64;65.86
47556;BME280;33291;46.222;26.460;2024-01-16T02:08:38;94845.78;;;1.71;63.06
47556;BME280;33291;46.222;26.460;2024-01-16T02:11:03;94832.94;;;1.71;62.61
47556;BME280;33291;46.222;26.460;2024-01-16T02:13:29;94843.66;;;1.76;62.83
47556;BME280;33291;46.222;26.460;2024-01-16T02:15:54;94844.59;;;1.75;62.81
47556;BME280;33291;46.222;26.460;2024-01-16T02:18:20;94852.31;;;1.75;61.87
47556;BME280;33291;46.222;26.460;2024-01-16T02:20:47;94831.06;;;1.73;59.61
47556;BME280;33291;46.222;26.460;2024-01-16T02:23:14;94842.47;;;1.80;60.29
47556;BME280;33291;46.222;26.460;2024-01-16T02:25:41;94824.31;;;1.72;61.07
47556;BME280;33291;46.222;26.460;2024-01-16T02:28:07;94825.94;;;1.73;60.04
47556;BME280;33291;46.222;26.460;2024-01-16T02:30:33;94838.50;;;1.76;61.67
47556;BME280;33291;46.222;26.460;2024-01-16T02:32:59;94851.59;;;1.73;61.75
47556;BME280;33291;46.222;26.460;2024-01-16T02:35:24;94835.09;;;1.66;62.53
47556;BME280;33291;46.222;26.460;2024-01-16T02:37:50;94857.69;;;1.72;59.96
47556;BME280;33291;46.222;26.460;2024-01-16T02:40:16;94866.44;;;1.69;60.31
47556;BME280;33291;46.222;26.460;2024-01-16T02:42:41;94875.06;;;1.68;61.42
47556;BME280;33291;46.222;26.460;2024-01-16T02:45:07;94879.16;;;1.71;59.63
47556;BME280;33291;46.222;26.460;2024-01-16T02:47:33;94870.91;;;1.67;59.40
47556;BME280;33291;46.222;26.460;2024-01-16T02:49:59;94867.97;;;1.72;58.62
47556;BME280;33291;46.222;26.460;2024-01-16T02:52:25;94869.13;;;1.68;57.57
47556;BME280;33291;46.222;26.460;2024-01-16T02:54:50;94863.75;;;1.71;58.14
47556;BME280;33291;46.222;26.460;2024-01-16T02:57:16;94860.75;;;1.66;56.52
47556;BME280;33291;46.222;26.460;2024-01-16T02:59:45;94869.06;;;1.58;57.44
47556;BME280;33291;46.222;26.460;2024-01-16T03:02:10;94850.16;;;1.59;57.83
47556;BME280;33291;46.222;26.460;2024-01-16T03:04:37;94836.41;;;1.60;57.49
47556;BME280;33291;46.222;26.460;2024-01-16T03:07:02;94849.09;;;1.62;58.34
47556;BME280;33291;46.222;26.460;2024-01-16T03:09:28;94828.84;;;1.47;58.29
47556;BME280;33291;46.222;26.460;2024-01-16T03:11:54;94848.47;;;1.48;56.72
47556;BME280;33291;46.222;26.460;2024-01-16T03:14:20;94851.94;;;1.47;57.30
47556;BME280;33291;46.222;26.460;2024-01-16T03:16:45;94846.56;;;1.50;57.60
47556;BME280;33291;46.222;26.460;2024-01-16T03:19:12;94833.06;;;1.48;57.31
47556;BME280;33291;46.222;26.460;2024-01-16T03:21:37;94830.75;;;1.45;58.65
47556;BME280;33291;46.222;26.460;2024-01-16T03:24:05;94831.06;;;1.31;62.05
47556;BME280;33291;46.222;26.460;2024-01-16T03:26:31;94872.78;;;1.33;65.81
47556;BME280;33291;46.222;26.460;2024-01-16T03:28:57;94864.78;;;1.26;65.82
47556;BME280;33291;46.222;26.460;2024-01-16T03:31:23;94881.22;;;1.12;66.04
47556;BME280;33291;46.222;26.460;2024-01-16T03:33:49;94876.94;;;1.01;64.69
47556;BME280;33291;46.222;26.460;2024-01-16T03:36:14;94893.97;;;1.02;63.85
47556;BME280;33291;46.222;26.460;2024-01-16T03:38:42;94879.88;;;0.97;61.58
47556;BME280;33291;46.222;26.460;2024-01-16T03:41:08;94882.06;;;1.01;59.43
47556;BME280;33291;46.222;26.460;2024-01-16T03:43:35;94898.06;;;1.05;59.30
47556;BME280;33291;46.222;26.460;2024-01-16T03:46:01;94900.50;;;1.06;59.68
47556;BME280;33291;46.222;26.460;2024-01-16T03:48:26;94903.19;;;1.05;59.70
47556;BME280;33291;46.222;26.460;2024-01-16T03:50:52;94911.31;;;1.10;58.43
47556;BME280;33291;46.222;26.460;2024-01-16T03:53:20;94916.31;;;1.12;58.76
47556;BME280;33291;46.222;26.460;2024-01-16T03:55:47;94908.06;;;1.08;57.92
47556;BME280;33291;46.222;26.460;2024-01-16T03:58:12;94912.84;;;1.13;57.45
47556;BME280;33291;46.222;26.460;2024-01-16T04:00:38;94916.44;;;1.10;57.60
47556;BME280;33291;46.222;26.460;2024-01-16T04:03:04;94878.59;;;0.91;58.09
47556;BME280;33291;46.222;26.460;2024-01-16T04:05:29;94921.09;;;1.16;58.26
47556;BME280;33291;46.222;26.460;2024-01-16T04:07:56;94924.69;;;1.14;58.73
47556;BME280;33291;46.222;26.460;2024-01-16T04:10:22;94922.38;;;1.11;59.22
47556;BME280;33291;46.222;26.460;2024-01-16T04:12:48;94934.19;;;1.02;59.77
47556;BME280;33291;46.222;26.460;2024-01-16T04:15:13;94917.53;;;0.85;58.24
47556;BME280;33291;46.222;26.460;2024-01-16T04:17:39;94947.38;;;0.97;58.53
47556;BME280;33291;46.222;26.460;2024-01-16T04:20:05;94957.63;;;0.97;59.31
47556;BME280;33291;46.222;26.460;2024-01-16T04:22:32;94949.69;;;0.89;59.37
47556;BME280;33291;46.222;26.460;2024-01-16T04:24:58;94918.47;;;0.73;59.44
47556;BME280;33291;46.222;26.460;2024-01-16T04:27:24;94969.72;;;0.95;58.67
47556;BME280;33291;46.222;26.460;2024-01-16T04:29:50;94955.88;;;0.98;58.85
47556;BME280;33291;46.222;26.460;2024-01-16T04:32:16;94967.88;;;0.97;58.41
47556;BME280;33291;46.222;26.460;2024-01-16T04:34:42;94978.03;;;0.99;57.81
47556;BME280;33291;46.222;26.460;2024-01-16T04:37:08;94966.81;;;1.00;57.48
47556;BME280;33291;46.222;26.460;2024-01-16T04:39:33;94987.09;;;1.03;57.10
47556;BME280;33291;46.222;26.460;2024-01-16T04:41:59;94986.16;;;1.04;56.88
47556;BME280;33291;46.222;26.460;2024-01-16T04:44:25;94985.81;;;1.09;56.29
47556;BME280;33291;46.222;26.460;2024-01-16T04:46:50;94980.81;;;0.96;56.20
47556;BME280;33291;46.222;26.460;2024-01-16T04:49:16;94981.97;;;1.03;55.41
47556;BME280;33291;46.222;26.460;2024-01-16T04:51:41;94950.75;;;0.98;55.59
47556;BME280;33291;46.222;26.460;2024-01-16T04:54:07;94959.84;;;1.02;54.96
47556;BME280;33291;46.222;26.460;2024-01-16T04:56:33;94977.91;;;1.00;54.45
47556;BME280;33291;46.222;26.460;2024-01-16T04:58:58;95001.09;;;0.99;54.77
47556;BME280;33291;46.222;26.460;2024-01-16T05:01:24;94990.22;;;0.95;54.12
47556;BME280;33291;46.222;26.460;2024-01-16T05:03:50;95002.72;;;1.00;54.51
47556;BME280;33291;46.222;26.460;2024-01-16T05:06:16;95007.16;;;0.98;54.57
47556;BME280;33291;46.222;26.460;2024-01-16T05:08:42;94991.28;;;0.93;54.35
47556;BME280;33291;46.222;26.460;2024-01-16T05:11:08;94985.09;;;0.95;54.79
47556;BME280;33291;46.222;26.460;2024-01-16T05:13:34;94981.72;;;0.83;55.90
47556;BME280;33291;46.222;26.460;2024-01-16T05:16:00;95010.53;;;0.87;55.84
47556;BME280;33291;46.222;26.460;2024-01-16T05:18:26;95016.00;;;0.82;55.46
47556;BME280;33291;46.222;26.460;2024-01-16T05:20:51;95023.44;;;0.74;56.50
47556;BME280;33291;46.222;26.460;2024-01-16T05:23:17;95013.28;;;0.61;57.63
47556;BME280;33291;46.222;26.460;2024-01-16T05:25:43;95025.97;;;0.51;57.79
47556;BME280;33291;46.222;26.460;2024-01-16T05:28:09;95046.94;;;0.57;58.80
47556;BME280;33291;46.222;26.460;2024-01-16T05:30:35;95044.34;;;0.45;60.58
47556;BME280;33291;46.222;26.460;2024-01-16T05:33:01;95049.69;;;0.42;61.38
47556;BME280;33291;46.222;26.460;2024-01-16T05:35:27;95059.00;;;0.32;60.06
47556;BME280;33291;46.222;26.460;2024-01-16T05:37:53;95069.03;;;0.35;58.92
47556;BME280;33291;46.222;26.460;2024-01-16T05:40:19;95061.69;;;0.42;56.62
47556;BME280;33291;46.222;26.460;2024-01-16T05:42:45;95058.69;;;0.48;57.59
47556;BME280;33291;46.222;26.460;2024-01-16T05:45:10;95029.06;;;0.32;56.29
47556;BME280;33291;46.222;26.460;2024-01-16T05:47:36;95065.59;;;0.59;57.10
47556;BME280;33291;46.222;26.460;2024-01-16T05:50:02;95088.19;;;0.65;56.62
47556;BME280;33291;46.222;26.460;2024-01-16T05:52:27;95085.41;;;0.68;56.46
47556;BME280;33291;46.222;26.460;2024-01-16T05:54:53;95089.13;;;0.64;56.64
47556;BME280;33291;46.222;26.460;2024-01-16T05:57:22;95092.75;;;0.73;56.55
47556;BME280;33291;46.222;26.460;2024-01-16T05:59:48;95100.66;;;0.69;57.38
47556;BME280;33291;46.222;26.460;2024-01-16T06:02:13;95103.75;;;0.86;57.00
47556;BME280;33291;46.222;26.460;2024-01-16T06:04:39;95088.06;;;0.66;57.72
47556;BME280;33291;46.222;26.460;2024-01-16T06:07:05;95121.06;;;0.71;58.26
47556;BME280;33291;46.222;26.460;2024-01-16T06:09:32;95122.25;;;0.78;57.79
47556;BME280;33291;46.222;26.460;2024-01-16T06:11:58;95136.81;;;0.78;58.06
47556;BME280;33291;46.222;26.460;2024-01-16T06:14:23;95140.31;;;0.77;57.92
47556;BME280;33291;46.222;26.460;2024-01-16T06:16:50;95147.88;;;0.78;58.30
47556;BME280;33291;46.222;26.460;2024-01-16T06:19:16;95147.78;;;0.91;55.72
47556;BME280;33291;46.222;26.460;2024-01-16T06:21:42;95148.25;;;0.85;56.21
47556;BME280;33291;46.222;26.460;2024-01-16T06:24:07;95145.09;;;0.81;55.52
47556;BME280;33291;46.222;26.460;2024-01-16T06:26:33;95138.44;;;0.79;56.17
47556;BME280;33291;46.222;26.460;2024-01-16T06:28:58;95147.78;;;0.80;56.62
47556;BME280;33291;46.222;26.460;2024-01-16T06:31:24;95162.00;;;0.84;56.94
47556;BME280;33291;46.222;26.460;2024-01-16T06:33:51;95134.44;;;0.63;55.62
47556;BME280;33291;46.222;26.460;2024-01-16T06:36:17;95158.69;;;0.70;57.58
47556;BME280;33291;46.222;26.460;2024-01-16T06:38:43;95160.22;;;0.73;56.83
47556;BME280;33291;46.222;26.460;2024-01-16T06:41:09;95180.28;;;0.79;55.60
47556;BME280;33291;46.222;26.460;2024-01-16T06:43:35;95188.78;;;0.80;56.11
47556;BME280;33291;46.222;26.460;2024-01-16T06:46:00;95180.50;;;0.76;55.87
47556;BME280;33291;46.222;26.460;2024-01-16T06:48:26;95191.34;;;0.80;56.43
47556;BME280;33291;46.222;26.460;2024-01-16T06:50:52;95202.19;;;0.83;56.96
47556;BME280;33291;46.222;26.460;2024-01-16T06:53:17;95219.78;;;0.88;54.88
47556;BME280;33291;46.222;26.460;2024-01-16T06:55:43;95216.44;;;0.87;54.35
47556;BME280;33291;46.222;26.460;2024-01-16T06:58:08;95226.34;;;0.92;54.17
47556;BME280;33291;46.222;26.460;2024-01-16T07:00:35;95238.94;;;0.95;54.29
47556;BME280;33291;46.222;26.460;2024-01-16T07:03:01;95238.47;;;0.90;53.99
47556;BME280;33291;46.222;26.460;2024-01-16T07:05:28;95254.94;;;0.99;52.98
47556;BME280;33291;46.222;26.460;2024-01-16T07:07:54;95251.66;;;0.97;52.34
47556;BME280;33291;46.222;26.460;2024-01-16T07:10:20;95244.91;;;0.96;51.84
47556;BME280;33291;46.222;26.460;2024-01-16T07:12:47;95266.38;;;1.06;51.44
47556;BME280;33291;46.222;26.460;2024-01-16T07:15:14;95253.44;;;1.08;51.80
47556;BME280;33291;46.222;26.460;2024-01-16T07:17:40;95281.31;;;1.12;50.23
47556;BME280;33291;46.222;26.460;2024-01-16T07:20:06;95261.53;;;1.14;49.99
47556;BME280;33291;46.222;26.460;2024-01-16T07:22:33;95266.38;;;1.06;49.81
47556;BME280;33291;46.222;26.460;2024-01-16T07:25:00;95246.69;;;1.06;48.54
47556;BME280;33291;46.222;26.460;2024-01-16T07:27:25;95246.59;;;1.08;48.94
47556;BME280;33291;46.222;26.460;2024-01-16T07:29:51;95249.25;;;1.06;49.03
47556;BME280;33291;46.222;26.460;2024-01-16T07:32:17;95265.81;;;1.14;48.33
47556;BME280;33291;46.222;26.460;2024-01-16T07:34:42;95256.63;;;1.11;47.83
47556;BME280;33291;46.222;26.460;2024-01-16T07:37:08;95262.56;;;1.12;47.49
47556;BME280;33291;46.222;26.460;2024-01-16T07:39:33;95269.56;;;1.10;47.79
47556;BME280;33291;46.222;26.460;2024-01-16T07:41:59;95278.97;;;1.09;48.10
47556;BME280;33291;46.222;26.460;2024-01-16T07:44:25;95278.97;;;1.09;47.52
47556;BME280;33291;46.222;26.460;2024-01-16T07:46:50;95284.09;;;1.09;46.98
47556;BME280;33291;46.222;26.460;2024-01-16T07:49:16;95283.28;;;1.09;47.58
47556;BME280;33291;46.222;26.460;2024-01-16T07:51:42;95279.19;;;1.06;46.82
47556;BME280;33291;46.222;26.460;2024-01-16T07:54:09;95270.69;;;1.05;46.79
47556;BME280;33291;46.222;26.460;2024-01-16T07:56:35;95267.78;;;1.10;46.45
47556;BME280;33291;46.222;26.460;2024-01-16T07:59:01;95267.91;;;1.09;47.44
47556;BME280;33291;46.222;26.460;2024-01-16T08:01:30;95265.81;;;1.14;46.92
47556;BME280;33291;46.222;26.460;2024-01-16T08:03:56;95283.59;;;1.28;47.09
47556;BME280;33291;46.222;26.460;2024-01-16T08:06:22;95289.88;;;1.24;46.73
47556;BME280;33291;46.222;26.460;2024-01-16T08:08:48;95289.19;;;1.33;46.85
47556;BME280;33291;46.222;26.460;2024-01-16T08:11:14;95300.31;;;1.34;46.75
47556;BME280;33291;46.222;26.460;2024-01-16T08:13:40;95311.03;;;1.39;45.93
47556;BME280;33291;46.222;26.460;2024-01-16T08:16:05;95308.50;;;1.50;45.54
47556;BME280;33291;46.222;26.460;2024-01-16T08:18:31;95307.09;;;1.46;45.76
47556;BME280;33291;46.222;26.460;2024-01-16T08:20:57;95313.50;;;1.40;46.67
47556;BME280;33291;46.222;26.460;2024-01-16T08:23:23;95315.66;;;1.58;45.91
47556;BME280;33291;46.222;26.460;2024-01-16T08:25:48;95320.78;;;1.58;45.73
47556;BME280;33291;46.222;26.460;2024-01-16T08:28:14;95317.66;;;1.66;45.53
47556;BME280;33291;46.222;26.460;2024-01-16T08:30:40;95326.50;;;1.62;46.47
47556;BME280;33291;46.222;26.460;2024-01-16T08:33:06;95323.25;;;1.59;45.68
47556;BME280;33291;46.222;26.460;2024-01-16T08:35:32;95331.16;;;1.56;45.77
47556;BME280;33291;46.222;26.460;2024-01-16T08:37:58;95333.25;;;1.51;46.21
47556;BME280;33291;46.222;26.460;2024-01-16T08:40:24;95332.44;;;1.51;45.82
47556;BME280;33291;46.222;26.460;2024-01-16T08:42:49;95342.59;;;1.52;46.00
47556;BME280;33291;46.222;26.460;2024-01-16T08:45:20;95339.69;;;1.57;45.46
47556;BME280;33291;46.222;26.460;2024-01-16T08:47:46;95346.00;;;1.64;44.92
47556;BME280;33291;46.222;26.460;2024-01-16T08:50:11;95351.09;;;1.88;44.51
47556;BME280;33291;46.222;26.460;2024-01-16T08:52:37;95360.69;;;2.09;43.55
47556;BME280;33291;46.222;26.460;2024-01-16T08:55:03;95348.44;;;2.24;44.07
47556;BME280;33291;46.222;26.460;2024-01-16T08:57:29;95362.47;;;2.42;43.36
47556;BME280;33291;46.222;26.460;2024-01-16T08:59:54;95371.34;;;2.61;43.47
47556;BME280;33291;46.222;26.460;2024-01-16T09:02:20;95375.66;;;2.60;42.65
47556;BME280;33291;46.222;26.460;2024-01-16T09:04:47;95388.03;;;2.78;42.55
47556;BME280;33291;46.222;26.460;2024-01-16T09:07:13;95392.47;;;2.98;43.31
47556;BME280;33291;46.222;26.460;2024-01-16T09:09:41;95387.41;;;3.19;42.98
47556;BME280;33291;46.222;26.460;2024-01-16T09:12:08;95387.47;;;3.29;41.75
47556;BME280;33291;46.222;26.460;2024-01-16T09:14:34;95386.28;;;3.45;41.88
47556;BME280;33291;46.222;26.460;2024-01-16T09:17:00;95386.53;;;3.42;40.88
47556;BME280;33291;46.222;26.460;2024-01-16T09:19:25;95414.19;;;3.28;41.27
47556;BME280;33291;46.222;26.460;2024-01-16T09:21:51;95401.19;;;3.30;42.14
47556;BME280;33291;46.222;26.460;2024-01-16T09:24:16;95394.25;;;3.42;40.31
47556;BME280;33291;46.222;26.460;2024-01-16T09:26:42;95385.69;;;3.41;40.46
47556;BME280;33291;46.222;26.460;2024-01-16T09:29:10;95383.72;;;3.33;41.12
47556;BME280;33291;46.222;26.460;2024-01-16T09:31:35;95406.16;;;3.54;42.03
47556;BME280;33291;46.222;26.460;2024-01-16T09:34:04;95404.41;;;3.76;41.14
47556;BME280;33291;46.222;26.460;2024-01-16T09:36:29;95387.16;;;3.87;40.86
47556;BME280;33291;46.222;26.460;2024-01-16T09:38:55;95377.34;;;4.02;40.38
47556;BME280;33291;46.222;26.460;2024-01-16T09:41:21;95406.81;;;4.09;39.52
47556;BME280;33291;46.222;26.460;2024-01-16T09:43:47;95392.13;;;4.00;38.47
47556;BME280;33291;46.222;26.460;2024-01-16T09:46:14;95387.97;;;3.88;39.31
47556;BME280;33291;46.222;26.460;2024-01-16T09:48:41;95413.22;;;3.94;40.55
47556;BME280;33291;46.222;26.460;2024-01-16T09:51:10;95420.03;;;3.95;39.21
47556;BME280;33291;46.222;26.460;2024-01-16T09:53:41;95414.88;;;3.95;39.18
47556;BME280;33291;46.222;26.460;2024-01-16T09:56:11;95420.09;;;4.05;39.84
47556;BME280;33291;46.222;26.460;2024-01-16T09:58:39;95431.16;;;4.17;39.36
47556;BME280;33291;46.222;26.460;2024-01-16T10:01:05;95422.91;;;4.23;39.39
47556;BME280;33291;46.222;26.460;2024-01-16T10:03:31;95423.34;;;4.28;39.67
47556;BME280;33291;46.222;26.460;2024-01-16T10:05:59;95444.69;;;4.30;39.51
47556;BME280;33291;46.222;26.460;2024-01-16T10:08:26;95449.34;;;4.36;39.35
47556;BME280;33291;46.222;26.460;2024-01-16T10:10:52;95441.97;;;4.32;39.70
47556;BME280;33291;46.222;26.460;2024-01-16T10:13:18;95451.16;;;4.45;39.79
47556;BME280;33291;46.222;26.460;2024-01-16T10:15:44;95457.13;;;4.46;38.93
47556;BME280;33291;46.222;26.460;2024-01-16T10:18:23;95471.41;;;4.29;38.96
47556;BME280;33291;46.222;26.460;2024-01-16T10:20:52;95447.88;;;4.01;39.52
47556;BME280;33291;46.222;26.460;2024-01-16T10:23:27;95479.47;;;4.03;40.76
47556;BME280;33291;46.222;26.460;2024-01-16T10:28:35;95473.81;;;4.09;40.99
47556;BME280;33291;46.222;26.460;2024-01-16T10:31:05;95484.09;;;4.21;40.59
47556;BME280;33291;46.222;26.460;2024-01-16T10:33:31;95476.88;;;4.15;40.38
47556;BME280;33291;46.222;26.460;2024-01-16T10:36:09;95517.91;;;4.27;41.32
47556;BME280;33291;46.222;26.460;2024-01-16T10:38:36;95485.03;;;4.20;40.86
47556;BME280;33291;46.222;26.460;2024-01-16T10:41:09;95503.84;;;4.32;41.43
47556;BME280;33291;46.222;26.460;2024-01-16T10:43:34;95488.22;;;4.12;40.42
47556;BME280;33291;46.222;26.460;2024-01-16T10:46:14;95483.00;;;4.02;40.28
47556;BME280;33291;46.222;26.460;2024-01-16T10:48:42;95506.91;;;3.93;41.78
47556;BME280;33291;46.222;26.460;2024-01-16T10:51:10;95508.66;;;3.60;41.95
47556;BME280;33291;46.222;26.460;2024-01-16T10:53:38;95509.78;;;3.67;41.83
47556;BME280;33291;46.222;26.460;2024-01-16T10:56:12;95499.69;;;3.87;42.23
47556;BME280;33291;46.222;26.460;2024-01-16T10:58:41;95496.09;;;4.11;41.10
47556;BME280;33291;46.222;26.460;2024-01-16T11:01:10;95487.94;;;4.05;41.32
47556;BME280;33291;46.222;26.460;2024-01-16T11:03:46;95509.22;;;4.07;40.37
47556;BME280;33291;46.222;26.460;2024-01-16T11:06:14;95507.38;;;3.98;40.37
47556;BME280;33291;46.222;26.460;2024-01-16T11:08:41;95510.09;;;3.97;40.37
47556;BME280;33291;46.222;26.460;2024-01-16T11:11:08;95511.38;;;3.91;40.72
47556;BME280;33291;46.222;26.460;2024-01-16T11:13:34;95506.91;;;4.04;40.22
47556;BME280;33291;46.222;26.460;2024-01-16T11:16:02;95545.19;;;3.98;39.90
47556;BME280;33291;46.222;26.460;2024-01-16T11:18:30;95527.34;;;3.85;40.06
47556;BME280;33291;46.222;26.460;2024-01-16T11:20:57;95534.22;;;3.96;40.66
47556;BME280;33291;46.222;26.460;2024-01-16T11:23:23;95561.44;;;4.09;39.82
47556;BME280;33291;46.222;26.460;2024-01-16T11:25:49;95546.22;;;4.06;39.76
47556;BME280;33291;46.222;26.460;2024-01-16T11:28:15;95547.38;;;4.14;39.55
47556;BME280;33291;46.222;26.460;2024-01-16T11:30:42;95571.63;;;4.22;40.08
47556;BME280;33291;46.222;26.460;2024-01-16T11:35:58;95568.03;;;4.02;40.83
47556;BME280;33291;46.222;26.460;2024-01-16T11:38:24;95566.00;;;3.73;41.34
47556;BME280;33291;46.222;26.460;2024-01-16T11:40:53;95604.03;;;3.70;43.19
47556;BME280;33291;46.222;26.460;2024-01-16T11:43:48;95623.59;;;3.61;44.19
47556;BME280;33291;46.222;26.460;2024-01-16T11:46:13;95581.00;;;3.46;48.35
47556;BME280;33291;46.222;26.460;2024-01-16T11:48:39;95580.28;;;3.32;47.69
47556;BME280;33291;46.222;26.460;2024-01-16T11:51:24;95589.41;;;3.36;48.49
47556;BME280;33291;46.222;26.460;2024-01-16T11:53:50;95588.97;;;3.54;48.15
47556;BME280;33291;46.222;26.460;2024-01-16T12:01:50;95589.88;;;3.53;43.10
47556;BME280;33291;46.222;26.460;2024-01-16T12:04:18;95616.09;;;3.35;43.41
47556;BME280;33291;46.222;26.460;2024-01-16T12:06:59;95613.53;;;3.24;43.73
47556;BME280;33291;46.222;26.460;2024-01-16T12:09:27;95615.25;;;3.12;43.02
47556;BME280;33291;46.222;26.460;2024-01-16T12:12:00;95618.66;;;3.13;42.50
47556;BME280;33291;46.222;26.460;2024-01-16T12:14:27;95605.91;;;3.11;43.01
47556;BME280;33291;46.222;26.460;2024-01-16T12:16:53;95618.41;;;3.05;44.54
47556;BME280;33291;46.222;26.460;2024-01-16T12:19:33;95635.22;;;2.97;43.53
47556;BME280;33291;46.222;26.460;2024-01-16T12:21:59;95641.19;;;2.98;43.39
47556;BME280;33291;46.222;26.460;2024-01-16T12:24:24;95631.59;;;3.00;43.23
47556;BME280;33291;46.222;26.460;2024-01-16T12:26:50;95631.38;;;2.92;42.61
47556;BME280;33291;46.222;26.460;2024-01-16T12:29:17;95646.91;;;2.90;42.83
47556;BME280;33291;46.222;26.460;2024-01-16T12:31:43;95607.16;;;2.59;42.46
47556;BME280;33291;46.222;26.460;2024-01-16T12:34:09;95647.38;;;2.95;42.50
47556;BME280;33291;46.222;26.460;2024-01-16T12:36:36;95657.56;;;2.97;42.25
47556;BME280;33291;46.222;26.460;2024-01-16T12:39:02;95675.47;;;2.98;42.39
47556;BME280;33291;46.222;26.460;2024-01-16T12:41:32;95662.69;;;2.97;41.90
47556;BME280;33291;46.222;26.460;2024-01-16T12:43:58;95653.03;;;3.12;42.10
47556;BME280;33291;46.222;26.460;2024-01-16T12:46:25;95665.34;;;3.31;42.53
47556;BME280;33291;46.222;26.460;2024-01-16T12:48:50;95680.72;;;3.44;41.97
47556;BME280;33291;46.222;26.460;2024-01-16T12:51:22;95687.25;;;3.36;42.51
47556;BME280;33291;46.222;26.460;2024-01-16T12:53:49;95675.91;;;3.39;43.39
47556;BME280;33291;46.222;26.460;2024-01-16T12:56:18;95692.16;;;3.40;42.43
47556;BME280;33291;46.222;26.460;2024-01-16T12:58:45;95658.81;;;3.27;42.54
47556;BME280;33291;46.222;26.460;2024-01-16T13:01:25;95672.50;;;3.38;42.62
47556;BME280;33291;46.222;26.460;2024-01-16T13:03:52;95710.28;;;3.38;42.50
47556;BME280;33291;46.222;26.460;2024-01-16T13:06:18;95709.72;;;3.34;43.05
47556;BME280;33291;46.222;26.460;2024-01-16T13:08:50;95698.91;;;3.29;43.41